Time;durP1;ratioP1;P1;durP2;ratioP2;P2;SDS_P1;SDS_P2;PMS_P1;PMS_P2;Temp;Humidity;BMP_temperature;BMP_pressure;BME280_temperature;BME280_humidity;BME280_pressure;Samples;Min_cycle;Max_cycle;Signal;HPM_P1;HPM_P2
2022/08/10 00:00:28;;;;;;;;;;;;;;;23.52;100.00;102577.53;5089297;28;20049;-55
2022/08/10 00:02:56;;;;;;;6.90;1.57;;;;;;;23.55;100.00;102577.06;5090306;28;19954;-55
2022/08/10 00:05:23;;;;;;;3.17;1.17;;;;;;;23.63;100.00;102581.28;5092619;28;20050;-55
2022/08/10 00:07:50;;;;;;;2.30;1.40;;;;;;;23.66;100.00;102582.72;5093355;28;20041;-55
2022/08/10 00:10:18;;;;;;;2.83;1.77;;;;;;;23.61;100.00;102580.72;5088328;28;20096;-52
2022/08/10 00:12:44;;;;;;;3.27;1.57;;;;;;;23.24;100.00;102572.81;5090613;28;20028;-57
2022/08/10 00:15:13;;;;;;;4.23;1.60;;;;;;;23.26;100.00;102576.97;5089776;28;20032;-54
2022/08/10 00:17:38;;;;;;;2.30;1.50;;;;;;;23.20;100.00;102586.94;5091665;28;20279;-57
2022/08/10 00:20:05;;;;;;;3.90;1.92;;;;;;;23.25;100.00;102577.22;5094089;28;20040;-57
2022/08/10 00:22:30;;;;;;;4.15;1.60;;;;;;;23.27;100.00;102575.91;5087285;28;20068;-55
2022/08/10 00:24:56;;;;;;;3.25;1.88;;;;;;;23.17;100.00;102575.66;5090511;28;20028;-58
2022/08/10 00:27:23;;;;;;;;;;;;;;;22.95;100.00;102569.97;5092006;28;20044;-57
2022/08/10 00:29:49;;;;;;;3.37;1.70;;;;;;;22.99;100.00;102565.72;5076492;28;19912;-57
2022/08/10 00:32:14;;;;;;;2.55;1.70;;;;;;;22.97;100.00;102563.22;5092925;28;20054;-55
2022/08/10 00:34:39;;;;;;;5.45;1.70;;;;;;;22.65;100.00;102569.03;5097076;28;20057;-55
2022/08/10 00:37:05;;;;;;;5.10;1.70;;;;;;;22.68;100.00;102563.09;5097541;28;20074;-56
2022/08/10 00:39:31;;;;;;;3.03;1.60;;;;;;;22.77;100.00;102572.56;5097788;28;20111;-58
2022/08/10 00:41:57;;;;;;;3.35;1.83;;;;;;;22.75;100.00;102569.25;5095421;28;20072;-56
2022/08/10 00:44:23;;;;;;;;;;;;;;;22.67;100.00;102566.03;5096100;28;20033;-57
2022/08/10 00:46:49;;;;;;;3.93;1.87;;;;;;;22.58;100.00;102562.81;5094340;28;19916;-55
2022/08/10 00:49:14;;;;;;;3.78;1.50;;;;;;;22.55;100.00;102569.59;5093763;28;20025;-55
2022/08/10 00:51:40;;;;;;;;;;;;;;;22.56;100.00;102563.09;5094365;28;20095;-58
2022/08/10 00:54:07;;;;;;;4.00;1.80;;;;;;;22.62;100.00;102569.50;5091776;28;19919;-55
2022/08/10 00:56:33;;;;;;;5.07;1.63;;;;;;;22.66;100.00;102567.13;5095944;28;20048;-58
2022/08/10 00:58:59;;;;;;;;;;;;;;;22.67;100.00;102564.16;5093978;28;20044;-55
2022/08/10 01:01:24;;;;;;;9.00;1.90;;;;;;;22.46;100.00;102558.19;5092765;28;19971;-55
2022/08/10 01:03:50;;;;;;;6.32;2.55;;;;;;;22.60;100.00;102561.53;5100402;28;20039;-56
2022/08/10 01:06:31;;;;;;;3.50;1.58;;;;;;;22.63;100.00;102565.72;5094507;28;20040;-54
2022/08/10 01:09:09;;;;;;;4.80;1.80;;;;;;;22.51;100.00;102562.13;5095614;28;20036;-56
2022/08/10 01:11:42;;;;;;;2.57;1.80;;;;;;;22.47;100.00;102564.47;5093773;28;20028;-55
2022/08/10 01:14:24;;;;;;;3.03;1.53;;;;;;;22.40;100.00;102564.56;5097260;28;20058;-55
2022/08/10 01:16:56;;;;;;;8.77;1.90;;;;;;;22.33;100.00;102566.53;5091820;28;20059;-56
2022/08/10 01:19:45;;;;;;;2.03;1.40;;;;;;;22.23;100.00;102560.84;5091044;28;20037;-52
2022/08/10 01:22:32;;;;;;;4.17;1.60;;;;;;;22.18;100.00;102556.06;5091595;28;20041;-60
2022/08/10 01:25:33;;;;;;;3.45;1.45;;;;;;;21.99;100.00;102555.31;5092794;28;20032;-52
2022/08/10 01:28:37;;;;;;;5.97;1.90;;;;;;;21.88;100.00;102549.56;5100372;28;20100;-57
2022/08/10 01:31:04;;;;;;;2.63;1.70;;;;;;;21.91;100.00;102545.56;5097236;28;20024;-56
2022/08/10 01:33:35;;;;;;;3.90;1.67;;;;;;;21.89;100.00;102550.41;5094726;28;20048;-56
2022/08/10 01:36:27;;;;;;;2.50;1.70;;;;;;;21.77;100.00;102544.91;5097448;28;20103;-56
2022/08/10 01:38:56;;;;;;;2.33;1.70;;;;;;;21.82;100.00;102542.34;5088923;28;20039;-56
2022/08/10 01:41:27;;;;;;;5.07;2.07;;;;;;;21.83;100.00;102540.44;5093061;28;20054;-60
2022/08/10 01:44:07;;;;;;;3.40;1.77;;;;;;;21.77;100.00;102539.47;5078139;28;20048;-54
2022/08/10 01:46:34;;;;;;;3.00;1.60;;;;;;;22.02;100.00;102539.31;5076978;28;20037;-57
2022/08/10 01:49:05;;;;;;;4.40;1.60;;;;;;;22.23;100.00;102544.50;5080638;28;20069;-56
2022/08/10 01:51:51;;;;;;;4.03;1.67;;;;;;;22.39;100.00;102538.38;5063978;28;20062;-56
2022/08/10 01:54:24;;;;;;;6.53;2.20;;;;;;;22.05;100.00;102533.44;5082316;28;20059;-56
2022/08/10 01:56:54;;;;;;;6.57;1.80;;;;;;;21.80;100.00;102540.88;5079378;28;20031;-56
2022/08/10 01:59:33;;;;;;;5.27;1.90;;;;;;;21.72;100.00;102540.16;5084566;28;20032;-55
2022/08/10 02:02:06;;;;;;;4.77;2.13;;;;;;;22.20;100.00;102546.63;5083503;28;20043;-55
2022/08/10 02:04:37;;;;;;;3.33;1.93;;;;;;;22.24;100.00;102546.16;5064165;28;20030;-56
2022/08/10 02:07:05;;;;;;;2.70;1.93;;;;;;;22.33;100.00;102542.84;5079348;28;20041;-55
2022/08/10 02:09:35;;;;;;;3.37;1.80;;;;;;;22.18;100.00;102537.84;5078115;28;20064;-56
2022/08/10 02:12:06;;;;;;;5.27;2.30;;;;;;;22.24;100.00;102533.34;5077930;28;20112;-56
2022/08/10 02:14:34;;;;;;;3.90;1.60;;;;;;;22.22;100.00;102534.66;5082201;28;20044;-55
2022/08/10 02:17:03;;;;;;;2.20;1.63;;;;;;;22.23;100.00;102542.59;5080126;28;20040;-59
2022/08/10 02:19:31;;;;;;;7.97;1.90;;;;;;;22.03;100.00;102537.44;5083869;28;20032;-56
2022/08/10 02:21:59;;;;;;;7.27;2.23;;;;;;;22.17;100.00;102536.19;5082198;28;20066;-58
2022/08/10 02:24:26;;;;;;;3.10;1.90;;;;;;;22.14;100.00;102536.63;5083969;28;20025;-58
2022/08/10 02:26:53;;;;;;;5.33;1.90;;;;;;;22.21;100.00;102536.53;5086551;28;20040;-58
2022/08/10 02:29:20;;;;;;;4.80;1.90;;;;;;;22.11;100.00;102545.28;5066488;28;20044;-55
2022/08/10 02:31:46;;;;;;;3.95;2.03;;;;;;;22.09;100.00;102543.88;5072586;28;20030;-55
2022/08/10 02:34:14;;;;;;;8.67;2.03;;;;;;;22.05;100.00;102548.94;5075369;28;20048;-59
2022/08/10 02:36:48;;;;;;;4.27;2.20;;;;;;;21.96;100.00;102550.34;5060993;28;20081;-56
2022/08/10 02:39:16;;;;;;;3.50;2.20;;;;;;;21.99;100.00;102539.78;5075851;28;20024;-56
2022/08/10 02:41:50;;;;;;;4.40;2.30;;;;;;;21.90;100.00;102546.63;5080348;28;20033;-58
2022/08/10 02:44:28;;;;;;;3.10;2.33;;;;;;;21.85;100.00;102544.59;5091909;28;20054;-53
2022/08/10 02:47:06;;;;;;;2.33;1.80;;;;;;;21.83;100.00;102545.91;5090272;28;20029;-58
2022/08/10 02:49:39;;;;;;;3.73;1.80;;;;;;;21.69;100.00;102534.34;5097966;28;20028;-56
2022/08/10 02:52:23;;;;;;;4.63;2.27;;;;;;;21.79;100.00;102534.63;5093591;28;20179;-56
2022/08/10 02:55:00;;;;;;;6.13;2.03;;;;;;;21.72;100.00;102533.91;5092876;28;20297;-57
2022/08/10 02:57:32;;;;;;;6.60;2.70;;;;;;;21.52;100.00;102521.34;5089144;28;20032;-54
2022/08/10 03:00:04;;;;;;;4.13;2.27;;;;;;;21.61;100.00;102513.69;5088199;28;20043;-58
2022/08/10 03:02:40;;;;;;;3.20;2.10;;;;;;;21.65;100.00;102519.53;5093967;28;20051;-56
2022/08/10 03:05:08;;;;;;;3.83;2.50;;;;;;;21.61;100.00;102519.94;5091613;28;20096;-57
2022/08/10 03:07:48;;;;;;;2.50;1.80;;;;;;;21.63;100.00;102519.72;5097768;28;20104;-57
2022/08/10 03:10:38;;;;;;;4.63;2.73;;;;;;;21.53;100.00;102517.56;5091577;28;20341;-58
2022/08/10 03:13:06;;;;;;;4.13;2.17;;;;;;;21.58;100.00;102514.97;5092720;28;20028;-58
2022/08/10 03:15:35;;;;;;;3.97;2.27;;;;;;;21.51;100.00;102516.09;5091717;28;20044;-57
2022/08/10 03:18:02;;;;;;;5.03;2.30;;;;;;;21.42;100.00;102510.13;5093429;28;20033;-57
2022/08/10 03:20:32;;;;;;;5.03;2.67;;;;;;;21.41;100.00;102511.19;5092069;28;20301;-57
2022/08/10 03:22:59;;;;;;;7.67;2.70;;;;;;;21.25;100.00;102513.50;5090175;28;20269;-58
2022/08/10 03:25:25;;;;;;;6.40;2.60;;;;;;;21.17;100.00;102511.06;5088058;28;20288;-58
2022/08/10 03:27:52;;;;;;;5.27;2.67;;;;;;;21.18;100.00;102510.00;5092911;28;20331;-57
2022/08/10 03:30:17;;;;;;;3.05;2.05;;;;;;;21.20;100.00;102507.88;5089543;28;20273;-57
2022/08/10 03:32:44;;;;;;;;;;;;;;;20.81;100.00;102505.34;5093577;28;20040;-57
2022/08/10 03:35:11;;;;;;;3.77;2.47;;;;;;;21.11;100.00;102511.97;5095308;28;19912;-58
2022/08/10 03:37:38;;;;;;;6.37;2.23;;;;;;;21.13;100.00;102505.25;5090804;28;20028;-57
2022/08/10 03:40:06;;;;;;;6.13;2.93;;;;;;;21.09;100.00;102504.03;5091889;28;20284;-53
2022/08/10 03:42:34;;;;;;;5.33;2.50;;;;;;;21.19;100.00;102503.50;5091613;28;20269;-58
2022/08/10 03:45:03;;;;;;;4.23;2.70;;;;;;;21.10;100.00;102504.88;5090712;28;20280;-57
2022/08/10 03:47:31;;;;;;;3.83;2.40;;;;;;;21.17;100.00;102505.63;5095053;28;20304;-58
2022/08/10 03:49:58;;;;;;;7.00;2.83;;;;;;;20.94;100.00;102496.22;5091762;28;20269;-58
2022/08/10 03:52:25;;;;;;;6.30;2.70;;;;;;;21.13;100.00;102494.38;5089571;28;20281;-57
2022/08/10 03:54:51;;;;;;;4.67;2.83;;;;;;;21.04;100.00;102499.28;5086168;28;20303;-57
2022/08/10 03:57:17;;;;;;;5.38;2.70;;;;;;;21.10;100.00;102504.88;5091226;28;20265;-58
2022/08/10 03:59:43;;;;;;;4.47;3.10;;;;;;;21.13;100.00;102507.97;5091163;28;20040;-56
2022/08/10 04:02:10;;;;;;;6.50;2.70;;;;;;;20.98;100.00;102504.78;5095683;28;20089;-59
2022/08/10 04:04:36;;;;;;;9.33;3.60;;;;;;;21.02;100.00;102506.00;5093041;28;20032;-59
2022/08/10 04:07:03;;;;;;;10.82;3.10;;;;;;;21.12;100.00;102513.63;5095964;28;20067;-58
2022/08/10 04:09:32;;;;;;;6.73;3.10;;;;;;;21.12;100.00;102509.03;5092834;28;20037;-56
2022/08/10 04:11:58;;;;;;;7.43;3.50;;;;;;;20.96;100.00;102505.00;5098150;28;20277;-54
2022/08/10 04:14:23;;;;;;;5.10;2.97;;;;;;;20.92;100.00;102509.22;5097786;28;20292;-55
2022/08/10 04:16:49;;;;;;;10.30;3.30;;;;;;;20.98;100.00;102500.16;5094210;28;20059;-61
2022/08/10 04:19:16;;;;;;;5.70;3.25;;;;;;;20.95;100.00;102506.06;5072139;28;20032;-58
2022/08/10 04:21:48;;;;;;;8.37;3.00;;;;;;;20.80;100.00;102511.03;5088596;28;20044;-57
2022/08/10 04:24:19;;;;;;;12.50;3.53;;;;;;;20.97;100.00;102511.28;5074911;28;20273;-60
2022/08/10 04:26:45;;;;;;;7.50;3.13;;;;;;;20.91;100.00;102513.00;5094044;28;20291;-59
2022/08/10 04:29:11;;;;;;;6.65;3.30;;;;;;;20.92;100.00;102509.22;5078701;28;20269;-57
2022/08/10 04:31:38;;;;;;;6.65;3.42;;;;;;;20.87;100.00;102509.88;5092694;28;20040;-57
2022/08/10 04:34:05;;;;;;;4.63;3.13;;;;;;;20.93;100.00;102500.00;5097602;28;20032;-54
2022/08/10 04:36:32;;;;;;;5.77;3.33;;;;;;;20.86;100.00;102504.69;5092143;28;20329;-58
2022/08/10 04:38:58;;;;;;;12.77;7.90;;;;;;;20.88;100.00;102502.59;5089347;28;20274;-58
2022/08/10 04:41:24;;;;;;;4.80;3.10;;;;;;;20.79;100.00;102496.56;5091388;28;20291;-58
2022/08/10 04:43:50;;;;;;;14.13;4.80;;;;;;;20.82;100.00;102496.16;5074475;28;20049;-57
2022/08/10 04:46:16;;;;;;;13.75;7.25;;;;;;;21.03;100.00;102496.78;5073414;28;20099;-58
2022/08/10 04:48:41;;;;;;;11.98;5.65;;;;;;;21.08;100.00;102496.09;5073626;28;20063;-58
2022/08/10 04:51:07;;;;;;;53.40;21.67;;;;;;;21.17;100.00;102497.44;5074753;28;20032;-57
2022/08/10 04:53:33;;;;;;;12.43;6.93;;;;;;;21.17;100.00;102505.63;5077294;28;20029;-56
2022/08/10 04:55:58;;;;;;;24.55;12.25;;;;;;;21.00;100.00;102498.06;5080514;28;20035;-56
2022/08/10 04:58:24;;;;;;;18.98;8.95;;;;;;;21.13;100.00;102498.97;5083874;28;20044;-58
2022/08/10 05:00:49;;;;;;;27.30;13.13;;;;;;;21.14;100.00;102506.91;5080685;28;20068;-58
2022/08/10 05:03:15;;;;;;;31.33;14.15;;;;;;;21.20;100.00;102499.72;5078545;28;20097;-59
2022/08/10 05:05:40;;;;;;;17.67;8.00;;;;;;;21.11;100.00;102501.09;5080401;28;20056;-56
2022/08/10 05:08:06;;;;;;;21.65;9.52;;;;;;;21.04;100.00;102496.56;5069902;28;20110;-59
2022/08/10 05:10:31;;;;;;;20.35;9.32;;;;;;;20.99;100.00;102499.13;5069836;28;20075;-57
2022/08/10 05:12:57;;;;;;;19.58;9.45;;;;;;;21.01;100.00;102507.91;5067124;28;20111;-57
2022/08/10 05:15:23;;;;;;;13.45;6.60;;;;;;;21.16;100.00;102510.25;5072442;28;20052;-59
2022/08/10 05:17:49;;;;;;;14.25;7.25;;;;;;;21.05;100.00;102506.38;5068112;28;20037;-57
2022/08/10 05:20:15;;;;;;;48.73;17.63;;;;;;;21.04;100.00;102506.59;5072801;28;20029;-58
2022/08/10 05:22:44;;;;;;;25.40;9.18;;;;;;;21.19;100.00;102509.78;5073449;28;20037;-60
2022/08/10 05:25:15;;;;;;;16.70;6.70;;;;;;;21.23;100.00;102510.16;5069363;28;20037;-58
2022/08/10 05:27:41;;;;;;;9.73;4.70;;;;;;;21.14;100.00;102511.50;5078826;28;20281;-58
2022/08/10 05:30:12;;;;;;;17.37;6.67;;;;;;;21.22;100.00;102513.94;5086911;28;20092;-57
2022/08/10 05:32:38;;;;;;;10.20;5.10;;;;;;;21.26;100.00;102517.03;5082439;28;20032;-58
2022/08/10 05:35:04;;;;;;;13.50;5.93;;;;;;;21.32;100.00;102518.84;5078551;28;20037;-58
2022/08/10 05:37:31;;;;;;;12.27;6.17;;;;;;;21.23;100.00;102515.63;5079768;28;20029;-58
2022/08/10 05:39:57;;;;;;;10.07;5.37;;;;;;;21.37;100.00;102510.84;5077470;28;20052;-59
2022/08/10 05:42:24;;;;;;;;;;;;;;;21.41;100.00;102519.38;5086564;28;20047;-58
2022/08/10 05:44:50;;;;;;;10.00;5.10;;;;;;;21.33;100.00;102521.34;5096096;28;19923;-57
2022/08/10 05:47:16;;;;;;;;;;;;;;;21.30;100.00;102519.06;5086499;28;20028;-58
2022/08/10 05:49:42;;;;;;;9.13;4.70;;;;;;;21.37;100.00;102524.44;5086891;28;19919;-58
2022/08/10 05:52:08;;;;;;;;;;;;;;;21.43;100.00;102512.66;5086892;28;20040;-58
2022/08/10 05:54:34;;;;;;;13.30;5.23;;;;;;;21.52;100.00;102523.22;5092885;28;19912;-59
2022/08/10 05:57:00;;;;;;;9.65;4.78;;;;;;;21.44;100.00;102519.75;5092642;28;20054;-58
2022/08/10 05:59:33;;;;;;;;;;;;;;;21.41;100.00;102522.94;5093136;28;20041;-60
2022/08/10 06:02:04;;;;;;;10.33;4.63;;;;;;;21.60;100.00;102529.19;5084850;28;19913;-55
2022/08/10 06:04:36;;;;;;;7.33;4.70;;;;;;;21.66;100.00;102526.63;5082753;28;20025;-56
2022/08/10 06:07:04;;;;;;;5.73;4.00;;;;;;;21.58;100.00;102527.75;5088587;28;20111;-58
2022/08/10 06:09:30;;;;;;;7.47;4.60;;;;;;;21.75;100.00;102522.53;5089857;28;20097;-59
2022/08/10 06:11:58;;;;;;;8.07;4.90;;;;;;;21.66;100.00;102529.34;5091764;28;20043;-59
2022/08/10 06:14:59;;;;;;;12.37;4.47;;;;;;;21.74;100.00;102531.78;5092930;28;20066;-59
2022/08/10 06:17:24;;;;;;;9.33;4.50;;;;;;;21.91;100.00;102532.78;5092109;28;20067;-59
2022/08/10 06:19:51;;;;;;;11.93;5.40;;;;;;;21.99;100.00;102531.63;5092193;28;20058;-58
2022/08/10 06:22:17;;;;;;;8.90;4.30;;;;;;;22.07;100.00;102527.75;5084777;28;20020;-56
2022/08/10 06:24:44;;;;;;;;;;;;;;;22.13;100.00;102524.06;5093743;28;20020;-60
2022/08/10 06:27:09;;;;;;;11.00;4.23;;;;;;;22.20;100.00;102530.28;5093369;28;19920;-59
2022/08/10 06:29:39;;;;;;;12.23;4.63;;;;;;;22.26;100.00;102524.94;5088802;28;20095;-60
2022/08/10 06:32:07;;;;;;;8.80;4.83;;;;;;;22.21;100.00;102522.91;5086751;28;20038;-56
2022/08/10 06:34:38;;;;;;;7.00;4.50;;;;;;;22.28;100.00;102525.53;5089774;28;20048;-58
2022/08/10 06:37:06;;;;;;;14.27;5.23;;;;;;;22.30;100.00;102521.53;5091296;28;20035;-57
2022/08/10 06:39:33;;;;;;;9.20;4.37;;;;;;;22.43;100.00;102531.38;5091366;28;20037;-60
2022/08/10 06:42:18;;;;;;;6.97;4.23;;;;;;;22.47;100.00;102524.44;5086794;28;20087;-57
2022/08/10 06:45:01;;;;;;;10.47;4.57;;;;;;;22.51;100.00;102532.13;5084042;28;20096;-58
2022/08/10 06:47:36;;;;;;;8.53;5.03;;;;;;;22.61;100.00;102532.41;5071817;28;20040;-58
2022/08/10 06:50:09;;;;;;;10.53;5.33;;;;;;;22.66;100.00;102532.50;5074056;28;20040;-58
2022/08/10 06:52:35;;;;;;;19.67;5.07;;;;;;;22.66;100.00;102529.78;5072347;28;20029;-58
2022/08/10 06:55:03;;;;;;;12.57;4.67;;;;;;;22.78;100.00;102529.78;5078821;28;20028;-59
2022/08/10 06:57:33;;;;;;;7.70;3.87;;;;;;;22.86;100.00;102531.34;5076472;28;20036;-58
2022/08/10 07:00:02;;;;;;;6.43;3.00;;;;;;;22.97;100.00;102535.94;5077905;28;20055;-59
2022/08/10 07:02:50;;;;;;;7.40;4.40;;;;;;;23.11;100.00;102527.50;5073503;28;20033;-58
2022/08/10 07:05:19;;;;;;;9.53;3.60;;;;;;;23.10;100.00;102536.78;5081036;28;20057;-56
2022/08/10 07:07:46;;;;;;;10.70;4.13;;;;;;;23.13;100.00;102539.84;5084730;28;20045;-59
2022/08/10 07:10:17;;;;;;;7.30;3.90;;;;;;;23.20;100.00;102543.28;5079626;28;20028;-58
2022/08/10 07:12:45;;;;;;;8.57;3.97;;;;;;;23.28;100.00;102539.34;5078652;28;20044;-60
2022/08/10 07:15:12;;;;;;;9.03;3.97;;;;;;;23.33;100.00;102538.66;5078264;28;20040;-57
2022/08/10 07:17:39;;;;;;;11.00;4.15;;;;;;;23.22;100.00;102542.22;5051221;28;20127;-57
2022/08/10 07:20:08;;;;;;;7.00;3.17;;;;;;;23.48;100.00;102543.59;5070334;28;20037;-58
2022/08/10 07:22:35;;;;;;;6.20;4.10;;;;;;;23.39;100.00;102543.13;5074824;28;20088;-58
2022/08/10 07:25:05;;;;;;;9.83;3.70;;;;;;;23.56;100.00;102543.22;5078136;28;20054;-58
2022/08/10 07:27:33;;;;;;;9.13;3.83;;;;;;;23.49;100.00;102546.09;5072619;28;20020;-58
2022/08/10 07:30:00;;;;;;;6.13;2.90;;;;;;;23.70;100.00;102535.56;5059860;28;20044;-58
2022/08/10 07:32:27;;;;;;;12.07;3.50;;;;;;;23.76;100.00;102534.59;5064387;28;20067;-58
2022/08/10 07:34:54;;;;;;;5.23;3.10;;;;;;;23.88;100.00;102537.28;5039930;28;20043;-58
2022/08/10 07:37:22;;;;;;;6.00;3.37;;;;;;;23.90;100.00;102535.13;5069704;28;20035;-59
2022/08/10 07:39:51;;;;;;;3.60;2.00;;;;;;;23.86;100.00;102539.44;5080439;28;20043;-56
2022/08/10 07:42:23;;;;;;;4.93;2.70;;;;;;;23.96;100.00;102532.47;5086260;28;20059;-58
2022/08/10 07:44:49;;;;;;;5.90;2.73;;;;;;;23.90;100.00;102537.84;5088257;28;20028;-60
2022/08/10 07:47:41;;;;;;;3.37;2.23;;;;;;;24.14;100.00;102534.22;5092786;28;20088;-59
2022/08/10 07:50:10;;;;;;;2.43;1.90;;;;;;;24.30;100.00;102538.03;5087120;28;20062;-59
2022/08/10 07:52:38;;;;;;;8.90;3.00;;;;;;;24.38;100.00;102529.41;5090434;28;20066;-58
2022/08/10 07:55:06;;;;;;;5.13;2.47;;;;;;;24.28;100.00;102524.59;5097310;28;20035;-59
2022/08/10 07:57:35;;;;;;;5.53;2.20;;;;;;;24.46;100.00;102542.69;5090194;28;20043;-59
2022/08/10 08:00:08;;;;;;;8.20;2.77;;;;;;;24.44;100.00;102538.53;5088695;28;20036;-60
2022/08/10 08:02:48;;;;;;;5.93;2.10;;;;;;;24.56;100.00;102541.19;5082486;28;20028;-59
2022/08/10 08:05:14;;;;;;;;;;;;;;;24.55;100.00;102540.34;5087248;28;20070;-60
2022/08/10 08:07:42;;;;;;;7.30;2.20;;;;;;;24.68;100.00;102543.84;5083931;28;19916;-59
2022/08/10 08:10:13;;;;;;;9.00;2.80;;;;;;;24.66;100.00;102535.88;5083154;28;20052;-59
2022/08/10 08:12:40;;;;;;;8.83;2.30;;;;;;;24.36;100.00;102537.03;5084305;28;20041;-59
2022/08/10 08:15:09;;;;;;;3.83;2.27;;;;;;;24.60;100.00;102545.06;5080202;28;20028;-59
2022/08/10 08:17:37;;;;;;;6.37;2.33;;;;;;;24.84;100.00;102539.44;5087988;28;20035;-59
2022/08/10 08:20:03;;;;;;;5.83;2.77;;;;;;;24.90;100.00;102539.28;5086915;28;20029;-59
2022/08/10 08:22:29;;;;;;;55.77;32.00;;;;;;;24.97;100.00;102543.72;5089205;28;20036;-59
2022/08/10 08:24:57;;;;;;;74.70;41.40;;;;;;;24.79;100.00;102542.94;5091689;28;20033;-57
2022/08/10 08:27:24;;;;;;;48.20;24.70;;;;;;;25.00;100.00;102554.16;5090443;28;20029;-59
2022/08/10 08:29:51;;;;;;;42.47;24.17;;;;;;;25.25;100.00;102548.22;5088882;28;20029;-57
2022/08/10 08:32:21;;;;;;;49.03;28.37;;;;;;;25.24;100.00;102545.72;5098899;28;20036;-57
2022/08/10 08:34:51;;;;;;;79.53;43.63;;;;;;;25.27;100.00;102548.81;5093104;28;20033;-57
2022/08/10 08:37:19;;;;;;;48.93;26.73;;;;;;;25.42;100.00;102544.59;5093618;28;20025;-57
2022/08/10 08:39:45;;;;;;;81.73;46.87;;;;;;;25.27;100.00;102548.81;5087579;28;20029;-59
2022/08/10 08:42:39;;;;;;;49.07;29.07;;;;;;;25.45;100.00;102544.91;5088350;28;20041;-56
2022/08/10 08:45:14;;;;;;;30.80;15.97;;;;;;;25.51;100.00;102545.84;5073385;28;20057;-58
2022/08/10 08:48:24;;;;;;;26.73;14.97;;;;;;;25.62;100.00;102536.66;5070047;28;20036;-59
2022/08/10 08:51:09;;;;;;;14.63;7.20;;;;;;;25.73;100.00;102542.25;5075077;28;20057;-59
2022/08/10 08:53:50;;;;;;;14.80;7.57;;;;;;;25.69;100.00;102541.09;5073886;28;20066;-61
2022/08/10 08:56:52;;;;;;;18.53;9.87;;;;;;;25.71;100.00;102539.75;5074134;28;20059;-59
2022/08/10 08:59:33;;;;;;;74.07;40.43;;;;;;;25.65;100.00;102538.03;5052501;28;20056;-58
2022/08/10 09:02:26;;;;;;;79.60;43.03;;;;;;;25.80;100.00;102534.63;5081462;28;20051;-59
2022/08/10 09:04:51;;;;;;;75.67;40.83;;;;;;;25.97;100.00;102539.19;5083492;28;20025;-59
2022/08/10 09:07:32;;;;;;;;;;;;;;;25.94;100.00;102531.50;5079489;28;20051;-59
2022/08/10 09:10:26;;;;;;;88.03;32.53;;;;;;;26.06;100.00;102538.47;5065284;28;19924;-57
2022/08/10 09:13:05;;;;;;;52.03;22.30;;;;;;;26.23;100.00;102539.47;5066271;28;20061;-58
2022/08/10 09:15:55;;;;;;;40.53;17.63;;;;;;;26.29;100.00;102538.41;5063928;28;20037;-60
2022/08/10 09:18:44;;;;;;;30.13;11.97;;;;;;;26.39;100.00;102534.94;5070543;28;20041;-58
2022/08/10 09:21:18;;;;;;;17.37;7.93;;;;;;;26.47;100.00;102527.03;5070903;28;20033;-59
2022/08/10 09:24:01;;;;;;;12.03;5.60;;;;;;;26.87;100.00;102529.53;5073091;28;20045;-58
2022/08/10 09:26:39;;;;;;;11.27;4.77;;;;;;;27.26;100.00;102531.09;5067417;28;20170;-58
2022/08/10 09:29:06;;;;;;;6.20;2.90;;;;;;;27.60;100.00;102517.78;5074562;28;20083;-58
2022/08/10 09:31:44;;;;;;;27.73;12.43;;;;;;;27.93;100.00;102519.50;5089809;28;20043;-59
2022/08/10 09:34:33;;;;;;;95.25;54.00;;;;;;;28.50;95.38;102520.34;5084872;28;20028;-59
2022/08/10 09:37:47;;;;;;;85.10;48.90;;;;;;;28.87;91.03;102523.84;5074876;28;20044;-59
2022/08/10 09:40:20;;;;;;;54.50;31.88;;;;;;;29.48;85.86;102524.72;4997071;28;20035;-59
2022/08/10 09:43:13;;;;;;;41.17;24.50;;;;;;;29.96;81.33;102521.38;5086522;28;20075;-59
2022/08/10 09:45:56;;;;;;;25.00;14.80;;;;;;;30.39;76.71;102528.22;5077457;28;20091;-59
2022/08/10 09:48:33;;;;;;;11.93;6.40;;;;;;;31.05;70.74;102526.69;5091491;28;20048;-59
2022/08/10 09:51:28;;;;;;;8.25;4.75;;;;;;;31.74;65.85;102519.13;5095002;28;20047;-60
2022/08/10 09:54:06;;;;;;;11.07;3.30;;;;;;;32.32;61.83;102526.25;5097386;28;20119;-59
2022/08/10 09:56:52;;;;;;;6.55;3.40;;;;;;;32.53;60.53;102517.56;5090604;28;20051;-60
2022/08/10 09:59:41;;;;;;;4.93;2.50;;;;;;;32.70;58.19;102519.72;5096127;28;20112;-59
2022/08/10 10:02:26;;;;;;;5.40;2.63;;;;;;;33.00;56.91;102511.97;5094061;28;20037;-58
2022/08/10 10:05:00;;;;;;;3.53;1.83;;;;;;;33.34;55.57;102509.84;5091107;28;20047;-59
2022/08/10 10:07:28;;;;;;;2.42;1.70;;;;;;;33.71;53.69;102516.22;5088183;28;20142;-58
2022/08/10 10:10:29;;;;;;;4.03;1.80;;;;;;;34.41;50.02;102515.03;5091413;28;20083;-59
2022/08/10 10:13:05;;;;;;;4.45;1.20;;;;;;;34.72;48.94;102509.47;5075280;28;20048;-60
2022/08/10 10:15:34;;;;;;;6.55;1.70;;;;;;;34.82;46.65;102507.50;5072995;28;20047;-60
2022/08/10 10:18:32;;;;;;;2.15;1.50;;;;;;;34.75;46.84;102510.78;5091115;28;20040;-59
2022/08/10 10:21:19;;;;;;;3.60;1.52;;;;;;;35.31;44.54;102513.88;5083236;28;20048;-60
2022/08/10 10:23:54;;;;;;;2.65;1.65;;;;;;;35.36;43.10;102512.88;5095400;28;20052;-59
2022/08/10 10:26:44;;;;;;;105.18;67.18;;;;;;;35.66;41.85;102509.47;5089189;28;20032;-59
2022/08/10 10:29:41;;;;;;;122.18;81.15;;;;;;;35.92;40.85;102508.59;5090476;28;20037;-58
2022/08/10 10:32:20;;;;;;;63.08;42.50;;;;;;;36.21;39.79;102493.97;5086252;28;20044;-59
2022/08/10 10:34:50;;;;;;;55.53;36.65;;;;;;;36.23;40.25;102504.78;5083286;28;20040;-59
2022/08/10 10:37:19;;;;;;;28.38;19.65;;;;;;;36.64;38.47;102500.53;5082946;28;20020;-59
2022/08/10 10:39:50;;;;;;;17.27;11.35;;;;;;;36.98;38.07;102497.84;5082098;28;20033;-58
2022/08/10 10:42:41;;;;;;;12.15;7.93;;;;;;;36.74;36.74;102497.38;5085968;28;20058;-59
2022/08/10 10:45:28;;;;;;;7.40;4.13;;;;;;;37.18;35.35;102496.28;5082167;28;20047;-59
2022/08/10 10:47:58;;;;;;;7.82;3.03;;;;;;;36.89;36.03;102489.56;5083151;28;20059;-60
2022/08/10 10:50:36;;;;;;;6.63;2.13;;;;;;;36.91;35.91;102480.88;5083637;28;20056;-59
2022/08/10 10:53:07;;;;;;;3.25;1.75;;;;;;;37.13;35.11;102485.31;5085892;28;20032;-59
2022/08/10 10:55:55;;;;;;;5.22;2.08;;;;;;;37.19;35.65;102481.19;5086579;28;20037;-60
2022/08/10 10:58:29;;;;;;;2.45;1.42;;;;;;;37.57;34.18;102484.97;5085617;28;20147;-59
2022/08/10 11:01:14;;;;;;;2.92;1.20;;;;;;;37.91;33.71;102479.38;5087855;28;20035;-59
2022/08/10 11:03:42;;;;;;;4.60;1.33;;;;;;;37.91;33.72;102479.38;5084649;28;20058;-59
2022/08/10 11:06:26;;;;;;;3.50;1.13;;;;;;;38.41;32.21;102474.69;5080381;28;20162;-59
2022/08/10 11:08:58;;;;;;;2.08;1.17;;;;;;;38.65;32.34;102473.06;5093354;28;20042;-58
2022/08/10 11:11:46;;;;;;;5.80;1.67;;;;;;;38.46;31.78;102465.28;5090481;28;20047;-59
2022/08/10 11:14:24;;;;;;;1.92;1.08;;;;;;;38.93;31.74;102467.56;5088150;28;20032;-60
2022/08/10 11:17:04;;;;;;;3.13;1.13;;;;;;;39.09;31.46;102470.41;5093702;28;20032;-58
2022/08/10 11:19:48;;;;;;;2.40;1.27;;;;;;;39.26;30.94;102477.72;5088837;28;20391;-59
2022/08/10 11:22:34;;;;;;;1.67;1.10;;;;;;;39.53;31.40;102475.28;5091051;28;20033;-59
2022/08/10 11:25:09;;;;;;;14.10;8.75;;;;;;;39.61;30.67;102472.69;5091280;28;20033;-56
2022/08/10 11:27:47;;;;;;;78.32;51.45;;;;;;;39.92;30.08;102468.34;5091146;28;20082;-60
2022/08/10 11:30:32;;;;;;;65.43;43.72;;;;;;;39.84;31.60;102464.53;5091525;28;20056;-59
2022/08/10 11:33:21;;;;;;;57.57;37.03;;;;;;;40.19;29.52;102465.78;5093669;28;20038;-60
2022/08/10 11:35:55;;;;;;;50.25;32.20;;;;;;;40.21;30.13;102469.03;5094044;28;20277;-59
2022/08/10 11:38:45;;;;;;;35.20;23.77;;;;;;;40.34;29.43;102476.19;5090775;28;20025;-59
2022/08/10 11:41:13;;;;;;;41.63;28.08;;;;;;;40.57;28.89;102462.31;5095540;28;20032;-59